createdAt,value
2022-11-03T12:08:57.330Z,98.96
2022-11-03T12:09:27.282Z,98.54
2022-11-03T12:09:58.285Z,98.33
2022-11-03T12:10:28.824Z,98.54
2022-11-03T12:10:59.394Z,98.44
2022-11-03T12:11:29.983Z,98.13
2022-11-03T12:12:05.336Z,98.24
2022-11-03T12:12:31.225Z,98.85
2022-11-03T12:13:02.251Z,98.85
2022-11-03T12:13:33.315Z,98.65
2022-11-03T12:14:03.846Z,98.33
2022-11-03T12:14:34.851Z,98.44
2022-11-03T12:15:05.883Z,98.65
2022-11-03T12:15:36.924Z,99.05
2022-11-03T12:16:07.534Z,99.05
2022-11-03T12:16:38.077Z,99.05
2022-11-03T12:17:09.109Z,99.26
2022-11-03T12:17:39.621Z,99.16
2022-11-03T12:18:10.150Z,99.05
2022-11-03T12:18:46.122Z,98.65
2022-11-03T12:19:11.893Z,98.44
2022-11-03T12:19:42.431Z,98.50
2022-11-03T12:20:12.971Z,99.21
2022-11-03T12:20:43.598Z,99.11
2022-11-03T12:21:14.674Z,99.11
2022-11-03T12:21:45.692Z,98.80
2022-11-03T12:22:16.693Z,98.60
2022-11-03T12:22:47.215Z,98.50
2022-11-03T12:23:18.237Z,98.70
2022-11-03T12:23:49.248Z,98.80
2022-11-03T12:24:20.301Z,99.11
2022-11-03T12:24:50.772Z,99.01
2022-11-03T12:25:21.784Z,98.50
2022-11-03T12:25:52.786Z,98.39
2022-11-03T12:26:23.816Z,98.60
2022-11-03T12:26:54.827Z,98.70
2022-11-03T12:27:25.396Z,98.08
2022-11-03T12:27:55.903Z,97.67
2022-11-03T12:28:26.926Z,98.19
2022-11-03T12:28:57.980Z,98.29
2022-11-03T12:29:28.495Z,98.39
2022-11-03T12:29:59.021Z,98.29
2022-11-03T12:30:29.542Z,98.08
2022-11-03T12:31:33.041Z,97.27
2022-11-03T12:32:01.820Z,97.27
2022-11-03T12:32:35.054Z,97.67
2022-11-03T12:33:03.389Z,97.78
2022-11-03T12:33:33.903Z,97.37
2022-11-03T12:34:04.919Z,97.37
2022-11-03T12:34:35.965Z,97.27
2022-11-03T12:35:06.516Z,97.27
2022-11-03T12:35:37.012Z,97.16
2022-11-03T12:36:08.092Z,97.27
2022-11-03T12:36:38.599Z,97.67
2022-11-03T12:37:09.643Z,97.78
2022-11-03T12:37:40.648Z,98.08
2022-11-03T12:38:11.699Z,98.60
2022-11-03T12:38:42.242Z,98.80
2022-11-03T12:39:12.774Z,98.80
2022-11-03T12:39:43.328Z,98.50
2022-11-03T12:40:13.827Z,98.39
2022-11-03T12:40:44.341Z,98.50
2022-11-03T12:41:15.405Z,98.50
2022-11-03T12:41:45.937Z,98.70
2022-11-03T12:42:16.468Z,98.50
2022-11-03T12:42:47.500Z,98.50
2022-11-03T12:43:18.498Z,98.50
2022-11-03T12:43:49.623Z,98.08
2022-11-03T12:44:20.276Z,97.88
2022-11-03T12:44:50.821Z,97.83
2022-11-03T12:45:21.342Z,97.83
2022-11-03T12:45:52.381Z,97.42
2022-11-03T12:46:23.415Z,97.53
2022-11-03T12:46:54.415Z,97.53
2022-11-03T12:47:25.452Z,97.53
2022-11-03T12:47:55.983Z,97.63
2022-11-03T12:48:26.537Z,97.73
2022-11-03T12:48:57.063Z,98.14
2022-11-03T12:49:28.090Z,98.66
2022-11-03T12:49:59.146Z,98.86
2022-11-03T12:50:29.682Z,98.76
2022-11-03T12:51:00.694Z,98.55
2022-11-03T12:51:31.222Z,98.76
2022-11-03T12:52:07.647Z,98.96
2022-11-03T12:52:32.944Z,98.96
2022-11-03T12:53:04.226Z,98.96
2022-11-03T12:53:34.878Z,98.96
2022-11-03T12:54:05.886Z,98.66
2022-11-03T12:54:36.427Z,98.14
2022-11-03T12:55:07.489Z,97.73
2022-11-03T12:55:39.391Z,97.32
2022-11-03T12:56:09.032Z,97.32
2022-11-03T12:56:39.558Z,97.22
2022-11-03T12:57:10.083Z,97.22
2022-11-03T12:57:40.623Z,97.22
2022-11-03T12:58:11.138Z,97.42
2022-11-03T12:58:42.154Z,97.83
2022-11-03T12:59:13.191Z,97.83
2022-11-03T12:59:44.191Z,97.73
2022-11-03T13:00:15.217Z,97.83
2022-11-03T13:00:49.997Z,98.04
2022-11-03T13:01:16.639Z,97.83
2022-11-03T13:01:47.413Z,97.53
2022-11-03T13:02:18.071Z,97.53
2022-11-03T13:02:48.890Z,97.42
2022-11-03T13:03:19.455Z,97.42
2022-11-03T13:03:50.505Z,97.22
2022-11-03T13:04:21.034Z,96.70
2022-11-03T13:04:52.069Z,96.70
2022-11-03T13:05:23.103Z,96.70
2022-11-03T13:05:53.638Z,96.77
2022-11-03T13:06:24.646Z,96.77
2022-11-03T13:06:55.635Z,96.77
2022-11-03T13:07:30.458Z,96.66
2022-11-03T13:07:56.885Z,96.77
2022-11-03T13:08:27.890Z,97.38
2022-11-03T13:08:58.935Z,97.58
2022-11-03T13:09:29.952Z,96.97
2022-11-03T13:10:00.993Z,96.04
2022-11-03T13:10:31.544Z,95.64
2022-11-03T13:11:02.043Z,95.94
2022-11-03T13:11:33.039Z,96.15
2022-11-03T13:12:03.597Z,96.56
2022-11-03T13:12:34.097Z,96.25
2022-11-03T13:13:04.910Z,95.94
2022-11-03T13:13:35.659Z,95.53
2022-11-03T13:14:06.188Z,95.53
2022-11-03T13:14:37.177Z,95.64
2022-11-03T13:15:08.217Z,95.32
2022-11-03T13:15:39.221Z,95.23
2022-11-03T13:16:10.260Z,95.23
2022-11-03T13:16:40.812Z,95.23
2022-11-03T13:17:11.325Z,95.43
2022-11-03T13:18:14.283Z,95.84
2022-11-03T13:18:43.946Z,95.84
2022-11-03T13:19:14.483Z,95.84
2022-11-03T13:19:45.019Z,95.84
2022-11-03T13:20:16.061Z,95.94
2022-11-03T13:20:47.065Z,96.35
2022-11-03T13:21:18.069Z,96.45
2022-11-03T13:21:49.118Z,96.77
2022-11-03T13:22:19.605Z,96.56
2022-11-03T13:22:50.627Z,96.45
2022-11-03T13:23:22.962Z,96.35
2022-11-03T13:23:52.169Z,96.25
2022-11-03T13:24:22.691Z,96.56
2022-11-03T13:24:53.706Z,96.97
2022-11-03T13:25:24.812Z,97.07
2022-11-03T13:25:55.408Z,97.07
2022-11-03T13:26:25.947Z,96.66
2022-11-03T13:26:57.003Z,96.04
2022-11-03T13:27:28.011Z,95.94
2022-11-03T13:27:58.544Z,95.74
2022-11-03T13:28:29.578Z,95.53
2022-11-03T13:29:00.105Z,95.32
2022-11-03T13:29:35.147Z,95.32
2022-11-03T13:30:01.344Z,95.74
2022-11-03T13:30:31.872Z,96.25
2022-11-03T13:31:02.904Z,96.56
2022-11-03T13:31:33.455Z,96.87
2022-11-03T13:32:04.460Z,96.87
2022-11-03T13:32:35.494Z,96.77
2022-11-03T13:33:06.917Z,96.56
2022-11-03T13:33:37.059Z,96.45
2022-11-03T13:34:07.581Z,96.45
2022-11-03T13:34:38.122Z,96.35
2022-11-03T13:35:13.473Z,96.25
2022-11-03T13:35:39.411Z,96.15
2022-11-03T13:36:09.999Z,96.15
2022-11-03T13:36:40.579Z,96.15
2022-11-03T13:37:11.579Z,96.25
2022-11-03T13:37:42.621Z,96.35
2022-11-03T13:38:13.664Z,96.45
2022-11-03T13:38:44.178Z,96.56
2022-11-03T13:39:14.734Z,96.77
2022-11-03T13:39:45.238Z,96.97
2022-11-03T13:40:42.742Z,97.28
2022-11-03T13:41:08.013Z,97.58
2022-11-03T13:41:17.751Z,97.79
2022-11-03T13:41:48.749Z,97.99
2022-11-03T13:42:19.773Z,98.10
2022-11-03T13:42:50.330Z,97.48
2022-11-03T13:43:20.864Z,97.07
2022-11-03T13:43:51.880Z,96.66
2022-11-03T13:44:22.912Z,96.25
2022-11-03T13:44:53.918Z,96.15
2022-11-03T13:45:24.940Z,96.25
2022-11-03T13:45:55.473Z,96.20
2022-11-03T13:46:26.498Z,96.10
2022-11-03T13:46:57.012Z,96.10
2022-11-03T13:47:42.024Z,96.10
2022-11-03T13:50:13.241Z,96.00
2022-11-03T13:50:13.996Z,95.79
2022-11-03T13:50:31.970Z,95.90
2022-11-03T13:51:02.573Z,95.79
2022-11-03T13:51:33.082Z,95.49
2022-11-03T13:52:04.093Z,95.28
2022-11-03T13:52:34.612Z,95.49
2022-11-03T13:56:13.158Z,96.16
2022-11-03T13:59:29.539Z,96.16
2022-11-03T13:59:45.790Z,95.95
2022-11-03T14:00:15.793Z,95.44
2022-11-03T14:00:46.928Z,95.03
2022-11-03T14:01:17.589Z,94.93
2022-11-03T14:01:48.347Z,95.14
2022-11-03T14:04:52.670Z,95.34
2022-11-03T14:05:23.703Z,95.34
2022-11-03T14:05:54.741Z,95.86
2022-11-03T14:06:25.258Z,96.47
2022-11-03T14:06:56.289Z,96.26
2022-11-03T14:07:27.339Z,95.86
2022-11-03T14:07:57.867Z,95.54
2022-11-03T14:08:28.919Z,95.44
2022-11-03T14:08:59.432Z,95.34
2022-11-03T14:09:30.487Z,95.75
2022-11-03T14:10:03.879Z,96.57
2022-11-03T14:10:31.771Z,97.08
2022-11-03T14:11:02.307Z,97.19
2022-11-03T14:11:32.848Z,97.19
2022-11-03T14:12:03.388Z,96.57
2022-11-03T14:12:34.405Z,96.26
2022-11-03T14:13:05.449Z,96.16
2022-11-03T14:13:35.645Z,95.86
2022-11-03T14:14:06.698Z,95.34
2022-11-03T14:14:37.223Z,95.14
2022-11-03T14:15:08.227Z,95.14
2022-11-03T14:15:39.268Z,95.24
2022-11-03T14:16:10.395Z,95.34
2022-11-03T14:16:41.068Z,95.34
2022-11-03T14:17:11.610Z,95.34
2022-11-03T14:17:42.637Z,95.65
2022-11-03T14:18:13.157Z,95.75
2022-11-03T14:18:44.205Z,95.44
2022-11-03T14:19:15.221Z,94.62
2022-11-03T14:19:51.726Z,94.62
2022-11-03T14:20:16.569Z,94.93
2022-11-03T14:20:47.107Z,95.14
2022-11-03T14:21:17.655Z,95.34
2022-11-03T14:21:48.156Z,95.34
2022-11-03T14:22:19.214Z,95.34
2022-11-03T14:22:50.223Z,95.34
2022-11-03T14:23:21.240Z,95.34
2022-11-03T14:23:52.266Z,95.03
2022-11-03T14:24:23.285Z,95.03
2022-11-03T14:24:53.815Z,94.93
2022-11-03T14:25:24.833Z,94.83
2022-11-03T14:26:06.310Z,94.93
